createdAt,value
2023-04-13T00:00:37.031Z,0.50
2023-04-13T00:03:04.609Z,0.60
2023-04-13T00:05:34.396Z,0.30
2023-04-13T00:08:03.657Z,0.30
2023-04-13T00:10:31.543Z,0.30
2023-04-13T00:13:01.652Z,0.28
2023-04-13T00:15:28.643Z,0.40
2023-04-13T00:17:55.624Z,0.25
2023-04-13T00:20:22.504Z,0.30
2023-04-13T00:22:49.124Z,0.28
2023-04-13T00:25:16.979Z,0.35
2023-04-13T00:27:44.959Z,0.30
2023-04-13T00:30:14.162Z,0.50
2023-04-13T00:32:42.579Z,0.20
2023-04-13T00:35:11.962Z,0.30
2023-04-13T00:37:39.879Z,0.20
2023-04-13T00:40:08.543Z,0.30
2023-04-13T00:42:35.544Z,0.30
2023-04-13T00:45:02.323Z,0.30
2023-04-13T00:47:32.446Z,0.30
2023-04-13T00:50:02.487Z,0.50
2023-04-13T00:52:30.052Z,0.30
2023-04-13T00:54:58.076Z,0.22
2023-04-13T00:57:25.510Z,0.30
2023-04-13T00:59:53.106Z,0.30
2023-04-13T01:02:26.642Z,0.30
2023-04-13T01:04:58.152Z,0.30
2023-04-13T01:07:38.585Z,0.40
2023-04-13T01:10:21.594Z,0.40
2023-04-13T01:13:17.927Z,0.30
2023-04-13T01:16:01.482Z,0.80
2023-04-13T01:18:30.653Z,0.45
2023-04-13T01:21:00.161Z,0.40
2023-04-13T01:23:49.825Z,0.20
2023-04-13T01:26:17.347Z,0.40
2023-04-13T01:28:47.834Z,0.40
2023-04-13T01:31:17.359Z,0.40
2023-04-13T01:33:45.395Z,0.40
2023-04-13T01:36:13.092Z,0.50
2023-04-13T01:38:39.790Z,0.52
2023-04-13T01:41:09.500Z,0.50
2023-04-13T01:43:39.773Z,0.40
2023-04-13T01:46:14.140Z,0.50
2023-04-13T01:48:56.483Z,0.40
2023-04-13T01:51:51.699Z,0.50
2023-04-13T01:54:25.742Z,0.32
2023-04-13T01:56:57.198Z,0.40
2023-04-13T01:59:24.205Z,0.50
2023-04-13T02:01:51.259Z,0.40
2023-04-13T02:04:20.343Z,0.40
2023-04-13T02:06:48.306Z,0.50
2023-04-13T02:09:15.639Z,0.30
2023-04-13T02:11:44.083Z,0.43
2023-04-13T02:14:10.875Z,0.38
2023-04-13T02:16:38.940Z,0.30
2023-04-13T02:19:05.884Z,0.50
2023-04-13T02:21:32.651Z,0.30
2023-04-13T02:23:59.485Z,0.47
2023-04-13T02:26:26.426Z,0.50
2023-04-13T02:28:53.238Z,0.30
2023-04-13T02:31:20.794Z,0.50
2023-04-13T02:33:47.616Z,0.30
2023-04-13T02:36:16.794Z,0.30
2023-04-13T02:38:51.344Z,0.47
2023-04-13T02:41:26.051Z,0.32
2023-04-13T02:43:52.737Z,0.50
2023-04-13T02:46:23.695Z,0.60
2023-04-13T02:48:56.578Z,0.32
2023-04-13T02:51:25.466Z,0.30
2023-04-13T02:53:52.658Z,0.40
2023-04-13T02:56:19.690Z,0.30
2023-04-13T02:58:51.736Z,0.50
2023-04-13T03:01:19.531Z,0.32
2023-04-13T03:03:46.415Z,0.30
2023-04-13T03:06:13.628Z,0.32
2023-04-13T03:08:46.354Z,0.40
2023-04-13T03:11:23.603Z,0.60
2023-04-13T03:13:58.925Z,0.40
2023-04-13T03:16:26.476Z,0.40
2023-04-13T03:18:54.608Z,0.30
2023-04-13T03:21:21.570Z,0.30
2023-04-13T03:24:06.792Z,0.30
2023-04-13T03:26:33.644Z,0.60
2023-04-13T03:29:04.237Z,0.50
2023-04-13T03:31:35.030Z,0.30
2023-04-13T03:34:02.007Z,0.30
2023-04-13T03:36:28.783Z,0.40
2023-04-13T03:38:56.323Z,0.38
2023-04-13T03:41:24.747Z,0.30
2023-04-13T03:43:51.564Z,0.30
2023-04-13T03:46:18.305Z,0.32
2023-04-13T03:48:45.373Z,0.30
2023-04-13T03:51:17.286Z,0.32
2023-04-13T03:53:48.614Z,0.40
2023-04-13T03:56:18.979Z,0.40
2023-04-13T03:58:49.090Z,0.47
2023-04-13T04:01:20.474Z,0.40
2023-04-13T04:03:50.075Z,0.40
2023-04-13T04:06:18.086Z,0.60
2023-04-13T04:08:52.165Z,0.40
2023-04-13T04:11:29.248Z,0.45
2023-04-13T04:13:56.197Z,0.40
2023-04-13T04:16:24.521Z,0.50
2023-04-13T04:18:58.558Z,0.45
2023-04-13T04:21:34.425Z,0.40
2023-04-13T04:24:06.404Z,0.50
2023-04-13T04:26:38.071Z,0.40
2023-04-13T04:29:07.195Z,0.40
2023-04-13T04:31:37.537Z,0.40
2023-04-13T04:34:11.239Z,0.50
2023-04-13T04:36:41.865Z,0.50
2023-04-13T04:39:10.080Z,0.40
2023-04-13T04:41:45.535Z,0.95
2023-04-13T04:44:12.862Z,0.50
2023-04-13T04:46:43.693Z,0.70
2023-04-13T04:49:14.202Z,0.85
2023-04-13T04:51:41.079Z,0.70
2023-04-13T04:54:08.685Z,0.80
2023-04-13T04:56:35.879Z,0.80
2023-04-13T04:59:02.660Z,0.70
2023-04-13T05:01:43.437Z,1.10
2023-04-13T05:04:12.810Z,0.77
2023-04-13T05:06:42.245Z,0.70
2023-04-13T05:09:14.881Z,0.80
2023-04-13T05:11:47.112Z,0.95
2023-04-13T05:14:14.782Z,1.20
2023-04-13T05:16:41.487Z,1.30
2023-04-13T05:19:16.131Z,1.20
2023-04-13T05:22:02.153Z,1.75
2023-04-13T05:24:33.897Z,1.30
2023-04-13T05:27:03.353Z,0.60
2023-04-13T05:29:30.349Z,1.00
2023-04-13T05:32:01.709Z,0.60
2023-04-13T05:34:29.665Z,0.87
2023-04-13T05:37:05.578Z,0.68
2023-04-13T05:39:32.516Z,0.80
2023-04-13T05:41:59.184Z,0.80
2023-04-13T05:44:28.187Z,1.33
2023-04-13T05:46:55.330Z,1.15
2023-04-13T05:49:21.994Z,1.00
2023-04-13T05:51:48.983Z,1.27
2023-04-13T05:54:17.570Z,1.00
2023-04-13T05:56:48.118Z,2.63
2023-04-13T05:59:15.500Z,1.02
2023-04-13T06:01:42.459Z,0.93
2023-04-13T06:04:11.169Z,1.27
2023-04-13T06:06:38.105Z,1.38
2023-04-13T06:09:06.645Z,1.13
2023-04-13T06:11:33.329Z,0.90
2023-04-13T06:14:00.287Z,1.80
2023-04-13T06:16:27.142Z,1.25
2023-04-13T06:18:54.688Z,0.88
2023-04-13T06:21:21.463Z,1.20
2023-04-13T06:23:49.187Z,0.80
2023-04-13T06:26:25.625Z,0.90
2023-04-13T06:28:57.212Z,1.90
2023-04-13T06:31:27.781Z,1.35
2023-04-13T06:33:57.153Z,1.23
2023-04-13T06:36:28.823Z,1.10
2023-04-13T06:38:57.349Z,1.33
2023-04-13T06:41:24.802Z,1.70
2023-04-13T06:43:51.584Z,1.10
2023-04-13T06:46:27.758Z,1.88
2023-04-13T06:48:59.789Z,1.75
2023-04-13T06:51:31.625Z,1.10
2023-04-13T06:53:59.630Z,1.17
2023-04-13T06:56:26.341Z,0.70
2023-04-13T06:58:53.599Z,1.38
2023-04-13T07:01:21.725Z,0.90
2023-04-13T07:03:49.195Z,1.00
2023-04-13T07:06:16.321Z,0.80
2023-04-13T07:08:43.137Z,1.17
2023-04-13T07:11:10.997Z,1.27
2023-04-13T07:13:39.306Z,0.80
2023-04-13T07:16:09.253Z,0.80
2023-04-13T07:18:38.743Z,1.33
2023-04-13T07:21:05.660Z,1.25
2023-04-13T07:23:43.028Z,0.80
2023-04-13T07:26:15.189Z,1.58
2023-04-13T07:28:42.329Z,1.40
2023-04-13T07:31:11.885Z,0.93
2023-04-13T07:33:42.185Z,0.63
2023-04-13T07:36:10.569Z,0.93
2023-04-13T07:38:39.606Z,0.90
2023-04-13T07:41:07.400Z,0.85
2023-04-13T07:43:36.923Z,0.70
2023-04-13T07:46:12.740Z,1.00
2023-04-13T07:48:44.316Z,0.70
2023-04-13T07:51:21.786Z,0.65
2023-04-13T07:53:52.304Z,0.90
2023-04-13T07:56:19.586Z,0.73
2023-04-13T07:58:46.678Z,0.90
2023-04-13T08:01:13.372Z,0.93
2023-04-13T08:03:40.253Z,0.75
2023-04-13T08:06:14.398Z,1.10
2023-04-13T08:08:41.159Z,0.90
2023-04-13T08:11:08.731Z,0.80
2023-04-13T08:13:36.205Z,0.75
2023-04-13T08:16:04.019Z,1.38
2023-04-13T08:18:32.312Z,1.00
2023-04-13T08:21:00.169Z,0.80
2023-04-13T08:23:29.699Z,0.70
2023-04-13T08:26:02.435Z,0.90
2023-04-13T08:28:30.384Z,1.30
2023-04-13T08:30:59.026Z,0.50
2023-04-13T08:33:25.750Z,0.60
2023-04-13T08:35:52.397Z,0.73
2023-04-13T08:38:20.014Z,0.80
2023-04-13T08:40:50.216Z,0.95
2023-04-13T08:43:23.257Z,0.85
2023-04-13T08:45:50.478Z,0.70
2023-04-13T08:48:19.414Z,0.85
2023-04-13T08:50:48.389Z,0.80
2023-04-13T08:53:18.216Z,0.63
2023-04-13T08:55:45.979Z,0.60
2023-04-13T08:58:13.890Z,0.60
2023-04-13T09:00:42.018Z,0.70
2023-04-13T09:03:14.477Z,0.80
2023-04-13T09:05:45.880Z,0.95
2023-04-13T09:08:14.259Z,0.70
2023-04-13T09:10:44.655Z,1.23
2023-04-13T09:13:11.648Z,1.20
2023-04-13T09:15:39.030Z,0.82
2023-04-13T09:18:19.101Z,0.90
2023-04-13T09:20:58.376Z,0.90
2023-04-13T09:23:25.440Z,0.70
2023-04-13T09:26:08.463Z,0.52
2023-04-13T09:28:45.887Z,0.80
2023-04-13T09:31:13.681Z,0.80
2023-04-13T09:33:46.127Z,1.17
2023-04-13T09:38:40.511Z,0.90
2023-04-13T09:41:07.493Z,0.68
2023-04-13T09:43:36.744Z,1.05
2023-04-13T09:46:04.404Z,0.75
2023-04-13T09:48:31.163Z,0.75
2023-04-13T09:51:02.933Z,0.90
2023-04-13T09:53:47.609Z,0.90
2023-04-13T09:56:14.353Z,0.82
2023-04-13T09:58:45.919Z,1.00
2023-04-13T10:01:15.629Z,0.60
2023-04-13T10:03:43.281Z,1.10
2023-04-13T10:06:10.130Z,0.85
2023-04-13T10:08:38.899Z,0.93
2023-04-13T10:11:11.361Z,0.60
2023-04-13T10:13:48.044Z,0.70
2023-04-13T10:16:40.395Z,0.68
2023-04-13T10:19:13.034Z,0.80
2023-04-13T10:21:45.278Z,1.02
2023-04-13T10:24:13.201Z,0.80
2023-04-13T10:26:41.474Z,1.00
2023-04-13T10:29:10.175Z,1.23
2023-04-13T10:31:42.149Z,0.98
2023-04-13T10:34:10.656Z,0.82
2023-04-13T10:36:42.183Z,1.50
2023-04-13T10:39:10.608Z,1.40
2023-04-13T10:41:37.960Z,1.23
2023-04-13T10:44:06.465Z,0.70
2023-04-13T10:46:34.675Z,0.82
2023-04-13T10:49:02.605Z,1.25
2023-04-13T10:51:42.222Z,0.90
2023-04-13T10:54:10.633Z,0.80
2023-04-13T10:56:37.543Z,0.70
2023-04-13T10:59:07.147Z,0.68
2023-04-13T11:01:35.854Z,0.85
2023-04-13T11:04:08.900Z,0.90
2023-04-13T11:06:39.278Z,0.80
2023-04-13T11:09:07.753Z,0.60
2023-04-13T11:11:36.515Z,0.80
2023-04-13T11:14:03.943Z,0.85
2023-04-13T11:16:30.908Z,0.77
2023-04-13T11:19:05.099Z,1.05
2023-04-13T11:21:35.760Z,1.10
2023-04-13T11:24:02.799Z,1.05
2023-04-13T11:26:34.266Z,1.00
2023-04-13T11:29:02.888Z,1.30
2023-04-13T11:31:40.918Z,0.80
2023-04-13T11:34:09.776Z,0.80
2023-04-13T11:36:39.131Z,0.90
2023-04-13T11:39:11.027Z,0.95
2023-04-13T11:41:41.994Z,1.10
2023-04-13T11:44:11.341Z,0.95
2023-04-13T11:46:38.235Z,1.38
2023-04-13T11:49:05.092Z,1.33
2023-04-13T11:51:32.863Z,1.00
2023-04-13T11:54:01.702Z,1.27
2023-04-13T11:56:28.802Z,0.70
2023-04-13T11:58:55.517Z,0.68
2023-04-13T12:01:27.072Z,0.55
2023-04-13T12:04:13.878Z,1.50
2023-04-13T12:06:45.803Z,1.00
2023-04-13T12:09:16.733Z,1.00
2023-04-13T12:11:50.132Z,0.88
2023-04-13T12:19:24.601Z,0.80
2023-04-13T12:21:56.768Z,0.70
2023-04-13T12:24:39.153Z,0.82
2023-04-13T12:29:40.571Z,1.05
2023-04-13T12:32:14.387Z,0.80
2023-04-13T12:34:42.234Z,0.82
2023-04-13T12:37:10.397Z,1.05
2023-04-13T12:39:37.285Z,0.70
2023-04-13T12:42:04.044Z,0.90
2023-04-13T12:44:33.089Z,0.47
2023-04-13T12:47:00.680Z,0.70
2023-04-13T12:49:27.429Z,0.95
2023-04-13T12:51:54.023Z,0.80
2023-04-13T12:54:20.745Z,0.88
2023-04-13T12:56:47.553Z,0.80
2023-04-13T12:59:14.296Z,0.70
2023-04-13T13:01:40.893Z,0.98
2023-04-13T13:04:07.627Z,0.80
2023-04-13T13:06:34.512Z,0.57
2023-04-13T13:09:01.374Z,0.88
2023-04-13T13:11:28.450Z,0.90
2023-04-13T13:13:55.110Z,0.60
2023-04-13T13:16:21.853Z,0.75
2023-04-13T13:18:51.361Z,0.68
2023-04-13T13:21:19.482Z,1.13
2023-04-13T13:23:46.414Z,1.48
2023-04-13T13:28:42.972Z,0.57
2023-04-13T13:31:09.644Z,0.60
2023-04-13T13:33:36.767Z,0.80
2023-04-13T13:36:03.434Z,1.00
2023-04-13T13:38:30.062Z,1.20
2023-04-13T13:40:56.702Z,0.70
2023-04-13T13:43:23.382Z,1.33
2023-04-13T13:45:49.987Z,0.98
2023-04-13T13:48:16.798Z,1.60
2023-04-13T13:50:55.943Z,1.48
2023-04-13T13:53:24.233Z,0.80
2023-04-13T13:55:51.147Z,0.70
2023-04-13T13:58:17.813Z,1.15
2023-04-13T14:00:44.854Z,0.70
2023-04-13T14:03:14.826Z,0.73
2023-04-13T14:05:43.346Z,0.80
2023-04-13T14:08:10.593Z,1.00
2023-04-13T14:10:37.376Z,1.20
2023-04-13T14:13:04.090Z,0.70
2023-04-13T14:15:31.041Z,0.90
2023-04-13T14:18:10.046Z,0.90
2023-04-13T14:20:39.742Z,0.65
2023-04-13T14:23:07.126Z,0.80
2023-04-13T14:25:33.779Z,1.00
2023-04-13T14:28:00.994Z,0.95
2023-04-13T14:30:28.431Z,1.00
2023-04-13T14:32:56.343Z,0.80
2023-04-13T14:35:23.346Z,1.02
2023-04-13T14:37:50.051Z,0.63
2023-04-13T14:40:20.904Z,1.02
2023-04-13T14:42:48.182Z,0.73
2023-04-13T14:45:14.762Z,0.63
2023-04-13T14:47:41.994Z,0.90
2023-04-13T14:50:09.951Z,0.75
2023-04-13T14:52:36.652Z,1.05
2023-04-13T14:55:04.273Z,0.90
2023-04-13T14:57:31.481Z,1.10
2023-04-13T14:59:58.122Z,1.13
2023-04-13T15:02:24.989Z,0.90
2023-04-13T15:04:53.113Z,0.40
2023-04-13T15:07:21.857Z,0.30
2023-04-13T15:09:49.004Z,1.20
2023-04-13T15:12:15.700Z,0.57
2023-04-13T15:14:46.609Z,0.95
2023-04-13T15:17:13.596Z,0.45
2023-04-13T15:19:40.330Z,0.45
2023-04-13T15:22:07.016Z,0.60
2023-04-13T15:24:33.621Z,0.50
2023-04-13T15:27:00.334Z,0.60
2023-04-13T15:29:27.205Z,0.77
2023-04-13T15:31:54.087Z,0.90
2023-04-13T15:34:20.883Z,0.60
2023-04-13T15:36:47.910Z,0.50
2023-04-13T15:39:14.550Z,0.40
2023-04-13T15:41:41.250Z,0.50
2023-04-13T15:44:08.253Z,0.60
2023-04-13T15:46:35.001Z,0.90
2023-04-13T15:49:02.019Z,0.68
2023-04-13T15:51:29.056Z,0.70
2023-04-13T15:53:55.726Z,0.80
2023-04-13T15:56:22.669Z,0.90
2023-04-13T15:58:49.637Z,0.70
2023-04-13T16:01:16.270Z,0.98
2023-04-13T16:03:43.273Z,0.70
2023-04-13T16:06:10.839Z,0.50
2023-04-13T16:08:37.895Z,0.60
2023-04-13T16:11:05.027Z,0.68
2023-04-13T16:13:48.082Z,0.90
2023-04-13T16:16:15.790Z,1.05
2023-04-13T16:18:42.486Z,1.35
2023-04-13T16:21:10.840Z,0.93
2023-04-13T16:23:38.345Z,1.02
2023-04-13T16:26:05.168Z,0.90
2023-04-13T16:28:31.917Z,1.10
2023-04-13T16:30:59.044Z,1.13
2023-04-13T16:33:25.806Z,1.30
2023-04-13T16:35:52.483Z,1.13
2023-04-13T16:38:19.172Z,1.30
2023-04-13T16:40:45.996Z,0.98
2023-04-13T16:43:12.909Z,0.90
2023-04-13T16:45:39.573Z,0.93
2023-04-13T16:48:06.437Z,0.82
2023-04-13T16:50:33.050Z,0.70
2023-04-13T16:52:59.819Z,0.98
2023-04-13T16:55:28.525Z,0.73
2023-04-13T16:57:55.514Z,1.02
2023-04-13T17:00:22.569Z,1.00
2023-04-13T17:02:49.424Z,0.90
2023-04-13T17:05:16.287Z,0.75
2023-04-13T17:07:44.595Z,1.05
2023-04-13T17:10:13.591Z,0.77
2023-04-13T17:12:40.552Z,0.88
2023-04-13T17:15:07.900Z,0.80
2023-04-13T17:17:34.937Z,0.90
2023-04-13T17:20:02.133Z,0.88
2023-04-13T17:22:28.814Z,1.10
2023-04-13T17:24:55.854Z,0.90
2023-04-13T17:27:22.697Z,1.00
2023-04-13T17:29:49.937Z,0.73
2023-04-13T17:32:16.965Z,1.10
2023-04-13T17:34:44.697Z,1.30
2023-04-13T17:37:11.867Z,1.40
2023-04-13T17:39:42.321Z,1.50
2023-04-13T17:42:09.624Z,1.30
2023-04-13T17:44:37.888Z,1.20
2023-04-13T17:47:04.594Z,0.88
2023-04-13T17:49:31.211Z,1.02
2023-04-13T17:51:59.327Z,1.05
2023-04-13T17:54:27.248Z,0.95
2023-04-13T17:56:54.685Z,0.77
2023-04-13T17:59:21.782Z,0.85
2023-04-13T18:01:52.128Z,0.43
2023-04-13T18:04:19.681Z,0.50
2023-04-13T18:06:46.580Z,0.60
2023-04-13T18:09:14.273Z,0.57
2023-04-13T18:11:41.104Z,0.60
2023-04-13T18:14:09.081Z,0.50
2023-04-13T18:16:36.141Z,0.98
2023-04-13T18:19:03.052Z,0.93
2023-04-13T18:21:30.074Z,1.77
2023-04-13T18:23:57.090Z,2.30
2023-04-13T18:26:24.002Z,1.40
2023-04-13T18:28:50.644Z,1.95
2023-04-13T18:31:17.436Z,1.65
2023-04-13T18:33:44.643Z,1.17
2023-04-13T18:36:16.219Z,1.20
2023-04-13T18:38:43.565Z,0.90
2023-04-13T18:41:10.638Z,1.00
2023-04-13T18:43:37.461Z,0.95
2023-04-13T18:46:04.265Z,1.10
2023-04-13T18:48:31.613Z,1.45
2023-04-13T18:50:58.254Z,1.90
2023-04-13T18:53:24.921Z,2.10
2023-04-13T18:55:52.440Z,2.22
2023-04-13T18:58:20.381Z,2.25
2023-04-13T19:00:48.011Z,2.13
2023-04-13T19:03:15.178Z,1.40
2023-04-13T19:05:41.891Z,1.38
2023-04-13T19:08:10.035Z,1.30
2023-04-13T19:10:36.707Z,1.27
2023-04-13T19:13:03.486Z,1.40
2023-04-13T19:15:31.126Z,1.52
2023-04-13T19:17:59.307Z,1.40
2023-04-13T19:20:26.014Z,1.20
2023-04-13T19:22:52.718Z,1.30
2023-04-13T19:25:19.687Z,1.25
2023-04-13T19:27:47.270Z,1.38
2023-04-13T19:30:15.626Z,1.10
2023-04-13T19:32:44.525Z,1.05
2023-04-13T19:35:12.673Z,1.30
2023-04-13T19:37:40.060Z,1.40
2023-04-13T19:40:13.582Z,1.30
2023-04-13T19:42:41.856Z,1.15
2023-04-13T19:45:09.351Z,1.20
2023-04-13T19:47:37.370Z,1.40
2023-04-13T19:50:05.861Z,1.30
2023-04-13T19:52:32.686Z,1.67
2023-04-13T19:54:59.537Z,1.55
2023-04-13T19:57:26.175Z,1.73
2023-04-13T19:59:52.822Z,1.48
2023-04-13T20:02:19.885Z,1.80
2023-04-13T20:04:52.426Z,1.90
2023-04-13T20:09:46.720Z,1.38
2023-04-13T20:12:13.576Z,1.50
2023-04-13T20:14:42.072Z,1.17
2023-04-13T20:17:09.546Z,1.30
2023-04-13T20:19:36.655Z,1.60
2023-04-13T20:22:04.738Z,1.50
2023-04-13T20:24:31.871Z,1.08
2023-04-13T20:26:58.981Z,1.30
2023-04-13T20:29:27.372Z,1.02
2023-04-13T20:31:54.803Z,1.17
2023-04-13T20:34:22.173Z,1.10
2023-04-13T20:36:48.996Z,1.30
2023-04-13T20:39:18.611Z,1.00
2023-04-13T20:41:55.108Z,2.97
2023-04-13T20:44:25.890Z,3.58
2023-04-13T20:46:56.041Z,2.30
2023-04-13T20:49:24.382Z,1.60
2023-04-13T20:51:56.006Z,2.00
2023-04-13T20:54:23.411Z,1.50
2023-04-13T20:56:50.196Z,1.52
2023-04-13T20:59:18.253Z,1.58
2023-04-13T21:01:45.419Z,1.30
2023-04-13T21:04:12.218Z,1.58
2023-04-13T21:06:40.424Z,1.60
2023-04-13T21:09:08.664Z,1.20
2023-04-13T21:11:35.699Z,1.67
2023-04-13T21:14:02.735Z,1.65
2023-04-13T21:16:29.778Z,1.70
2023-04-13T21:18:57.081Z,1.70
2023-04-13T21:21:25.006Z,1.27
2023-04-13T21:23:53.162Z,1.25
2023-04-13T21:26:20.658Z,1.30
2023-04-13T21:28:47.409Z,1.25
2023-04-13T21:31:14.168Z,1.45
2023-04-13T21:33:41.037Z,1.50
2023-04-13T21:38:41.631Z,1.40
2023-04-13T21:41:15.921Z,1.58
2023-04-13T21:43:42.830Z,1.40
2023-04-13T21:46:11.186Z,1.50
2023-04-13T21:48:37.985Z,1.40
2023-04-13T21:51:09.382Z,1.60
2023-04-13T21:53:36.281Z,1.50
2023-04-13T21:56:03.510Z,1.80
2023-04-13T21:58:37.572Z,1.50
2023-04-13T22:01:04.563Z,1.90
2023-04-13T22:03:31.480Z,1.85
2023-04-13T22:05:58.482Z,1.92
2023-04-13T22:08:25.118Z,2.20
2023-04-13T22:10:51.862Z,2.20
2023-04-13T22:13:18.477Z,2.45
2023-04-13T22:15:45.273Z,2.22
2023-04-13T22:18:12.307Z,2.08
2023-04-13T22:20:39.023Z,1.67
2023-04-13T22:23:05.811Z,1.88
2023-04-13T22:25:32.439Z,1.42
2023-04-13T22:27:59.144Z,1.70
2023-04-13T22:30:25.785Z,1.90
2023-04-13T22:32:52.472Z,1.10
2023-04-13T22:35:19.118Z,1.35
2023-04-13T22:37:45.768Z,1.20
2023-04-13T22:40:12.467Z,0.95
2023-04-13T22:42:39.221Z,1.20
2023-04-13T22:45:06.491Z,1.20
2023-04-13T22:47:33.531Z,1.20
2023-04-13T22:50:00.792Z,1.20
2023-04-13T22:52:27.740Z,1.10
2023-04-13T22:54:54.513Z,1.10
2023-04-13T22:57:21.669Z,1.10
2023-04-13T22:59:48.472Z,1.08
2023-04-13T23:02:15.564Z,1.23
2023-04-13T23:04:42.640Z,1.15
2023-04-13T23:07:09.444Z,1.50
2023-04-13T23:09:36.417Z,1.40
2023-04-13T23:12:03.074Z,1.67
2023-04-13T23:14:30.022Z,1.80
2023-04-13T23:16:58.042Z,1.58
2023-04-13T23:19:24.827Z,2.22
2023-04-13T23:21:51.687Z,1.67
2023-04-13T23:24:18.544Z,1.85
2023-04-13T23:26:45.552Z,1.58
2023-04-13T23:29:12.578Z,1.70
2023-04-13T23:31:39.335Z,1.80
2023-04-13T23:34:06.089Z,1.60
2023-04-13T23:36:33.780Z,1.23
2023-04-13T23:39:00.628Z,1.25
2023-04-13T23:41:27.466Z,1.30
2023-04-13T23:43:54.189Z,1.50
2023-04-13T23:46:22.747Z,1.73
2023-04-13T23:48:49.480Z,1.40
2023-04-13T23:51:16.352Z,1.75
2023-04-13T23:53:42.975Z,1.80
2023-04-13T23:56:09.660Z,1.90
2023-04-13T23:58:36.418Z,1.90
